createdAt,value
2019-03-01T21:33:46.336Z,926.99
2019-03-01T21:34:02.648Z,926.96
2019-03-01T21:34:18.492Z,926.96
2019-03-01T21:34:34.810Z,926.94
2019-03-01T21:34:49.357Z,926.98
2019-03-01T21:35:02.343Z,926.93
2019-03-01T21:35:20.660Z,926.94
2019-03-01T21:35:33.773Z,926.95
2019-03-01T21:35:51.131Z,926.98
2019-03-01T21:36:04.354Z,926.98
2019-03-01T21:36:17.388Z,926.98
2019-03-01T21:36:35.103Z,927
2019-03-01T21:36:48.095Z,927
2019-03-01T21:37:04.840Z,926.98
2019-03-01T21:37:17.869Z,926.99
2019-03-01T21:37:30.850Z,927.05
2019-03-01T21:37:47.961Z,926.99
2019-03-01T21:38:01.003Z,926.99
2019-03-01T21:38:15.084Z,927.02
2019-03-01T21:38:28.138Z,927
2019-03-01T21:38:41.227Z,927.03
2019-03-01T21:38:56.368Z,927
2019-03-01T21:39:09.358Z,927.01
2019-03-01T21:39:25.220Z,927.04
2019-03-01T21:39:38.336Z,927.01
2019-03-01T21:39:51.402Z,927.05
2019-03-01T21:40:10.291Z,927.01
2019-03-01T21:40:23.327Z,927.04
2019-03-01T21:40:39.626Z,927.05
2019-03-01T21:40:54.119Z,927.03
2019-03-01T21:41:09.711Z,927.06
2019-03-01T21:41:23.126Z,927.06
2019-03-01T21:41:36.782Z,927.09
2019-03-01T21:41:52.688Z,927.03
2019-03-01T21:42:05.223Z,927.07
2019-03-01T21:42:22.233Z,927.09
2019-03-01T21:42:35.198Z,927.09
2019-03-01T21:42:47.734Z,927.12
2019-03-01T21:43:07.238Z,927.12
2019-03-01T21:43:20.258Z,927.1
2019-03-01T21:43:37.851Z,927.13
2019-03-01T21:43:50.912Z,927.12
2019-03-01T21:44:03.937Z,927.16
2019-03-01T21:44:20.731Z,927.17
2019-03-01T21:44:33.750Z,927.16
2019-03-01T21:44:47.745Z,927.18
2019-03-01T21:45:00.824Z,927.18
2019-03-01T21:45:13.833Z,927.18
2019-03-01T21:45:28.856Z,927.22
2019-03-01T21:45:41.889Z,927.23
2019-03-01T21:45:58.836Z,927.22
2019-03-01T21:46:12.671Z,927.24
2019-03-01T21:46:25.703Z,927.22
2019-03-01T21:46:43.120Z,927.23
2019-03-01T21:46:56.259Z,927.26
2019-03-01T21:47:14.785Z,927.29
2019-03-01T21:47:27.811Z,927.2
2019-03-01T21:47:40.846Z,927.27
2019-03-01T21:47:55.958Z,927.28
2019-03-01T21:48:08.971Z,927.26
2019-03-01T21:48:25.207Z,927.29
2019-03-01T21:48:38.370Z,927.22
2019-03-01T21:48:51.492Z,927.26
2019-03-01T21:49:07.721Z,927.24
2019-03-01T21:49:20.712Z,927.25
2019-03-01T21:49:33.266Z,927.23
2019-03-01T21:49:46.410Z,927.28
2019-03-01T21:50:07.485Z,927.28
2019-03-01T21:50:20.258Z,927.3
2019-03-01T21:50:33.293Z,927.28
2019-03-01T21:50:52.410Z,927.25
2019-03-01T21:51:05.409Z,927.21
2019-03-01T21:51:25.757Z,927.27
2019-03-01T21:51:39.001Z,927.26
2019-03-01T21:51:55.077Z,927.23
2019-03-01T21:52:08.450Z,927.21
2019-03-01T21:52:21.483Z,927.23
2019-03-01T21:52:37.428Z,927.24
2019-03-01T21:52:50.455Z,927.23
2019-03-01T21:53:06.783Z,927.24
2019-03-01T21:53:19.770Z,927.17
2019-03-01T21:53:32.733Z,927.2
2019-03-01T21:53:49.617Z,927.17
2019-03-01T21:54:02.152Z,927.17
2019-03-01T21:54:20.123Z,927.18
2019-03-01T21:54:33.135Z,927.17
2019-03-01T21:54:48.515Z,927.18
2019-03-01T21:55:03.240Z,927.15
2019-03-01T21:55:16.338Z,927.17
2019-03-01T21:55:34.986Z,927.15
2019-03-01T21:55:47.052Z,927.19
2019-03-01T21:56:08.440Z,927.14
2019-03-01T21:56:21.562Z,927.15
2019-03-01T21:56:34.576Z,927.15
2019-03-01T21:57:21.395Z,927.12
2019-03-01T21:57:38.356Z,927.15
2019-03-01T21:57:51.387Z,927.1
2019-03-01T21:58:08.543Z,927.12
2019-03-01T21:58:21.505Z,927.15
2019-03-01T21:58:34.495Z,927.14
2019-03-01T21:58:49.862Z,927.16
2019-03-01T21:59:02.886Z,927.17
2019-03-01T21:59:20.904Z,927.17
2019-03-01T21:59:33.872Z,927.17
2019-03-01T21:59:49.638Z,927.15
2019-03-01T22:00:03.883Z,927.18
2019-03-01T22:00:16.877Z,927.16
2019-03-01T22:00:35.984Z,927.18
2019-03-01T22:00:49.002Z,927.2
2019-03-01T22:01:05.801Z,927.21
2019-03-01T22:01:18.986Z,927.21
2019-03-01T22:01:31.992Z,927.22
2019-03-01T22:01:52.758Z,927.18
2019-03-01T22:02:05.952Z,927.22
2019-03-01T22:02:21.740Z,927.2
2019-03-01T22:02:34.755Z,927.23
2019-03-01T22:02:52.766Z,927.2
2019-03-01T22:03:06.095Z,927.26
2019-03-01T22:03:19.126Z,927.21
2019-03-01T22:03:35.821Z,927.22
2019-03-01T22:03:50.900Z,927.27
2019-03-01T22:04:09.237Z,927.24
2019-03-01T22:04:22.271Z,927.27
2019-03-01T22:04:39.271Z,927.23
2019-03-01T22:04:52.313Z,927.24
2019-03-01T22:05:05.252Z,927.23
2019-03-01T22:05:21.463Z,927.24
2019-03-01T22:05:34.509Z,927.21
2019-03-01T22:05:50.414Z,927.19
2019-03-01T22:06:03.411Z,927.21
2019-03-01T22:06:16.484Z,927.21
2019-03-01T22:06:33.664Z,927.19
2019-03-01T22:06:46.683Z,927.22
2019-03-01T22:07:05.990Z,927.19
2019-03-01T22:07:18.991Z,927.19
2019-03-01T22:07:38.204Z,927.19
2019-03-01T22:07:51.412Z,927.21
2019-03-01T22:08:04.486Z,927.21
2019-03-01T22:08:20.152Z,927.25
2019-03-01T22:08:33.134Z,927.23
2019-03-01T22:08:49.930Z,927.21
2019-03-01T22:09:02.978Z,927.18
2019-03-01T22:09:16.187Z,927.22
2019-03-01T22:09:32.898Z,927.23
2019-03-01T22:09:45.837Z,927.22
2019-03-01T22:10:03.332Z,927.23
2019-03-01T22:10:16.405Z,927.25
2019-03-01T22:10:38.740Z,927.23
2019-03-01T22:10:52.006Z,927.26
2019-03-01T22:11:04.999Z,927.25
2019-03-01T22:11:25.012Z,927.21
2019-03-01T22:11:38.081Z,927.21
2019-03-01T22:11:54.114Z,927.22
2019-03-01T22:12:07.196Z,927.19
2019-03-01T22:12:25.677Z,927.2
2019-03-01T22:12:38.819Z,927.21
2019-03-01T22:12:51.860Z,927.21
2019-03-01T22:13:07.583Z,927.24
2019-03-01T22:13:20.598Z,927.21
2019-03-01T22:13:37.637Z,927.19
2019-03-01T22:13:50.649Z,927.2
2019-03-01T22:14:03.653Z,927.21
2019-03-01T22:14:21.121Z,927.19
2019-03-01T22:14:34.115Z,927.2
2019-03-01T22:14:50.286Z,927.22
2019-03-01T22:15:03.339Z,927.23
2019-03-01T22:15:16.296Z,927.19
2019-03-01T22:15:32.794Z,927.22
2019-03-01T22:15:45.765Z,927.24
2019-03-01T22:16:04.739Z,927.24
2019-03-01T22:16:17.769Z,927.23
2019-03-01T22:16:39.290Z,927.23
2019-03-01T22:16:52.531Z,927.23
2019-03-01T22:17:05.577Z,927.24
2019-03-01T22:17:21.403Z,927.25
2019-03-01T22:17:34.351Z,927.27
2019-03-01T22:17:50.568Z,927.24
2019-03-01T22:18:03.666Z,927.26
2019-03-01T22:18:16.663Z,927.26
2019-03-01T22:18:31.856Z,927.27
2019-03-01T22:18:45.949Z,927.23
2019-03-01T22:19:01.104Z,927.29
2019-03-01T22:19:14.389Z,927.23
2019-03-01T22:19:30.476Z,927.26
2019-03-01T22:19:44.070Z,927.29
2019-03-01T22:19:59.246Z,927.26
2019-03-01T22:20:13.845Z,927.28
2019-03-01T22:20:26.868Z,927.27
2019-03-01T22:20:44.785Z,927.23
2019-03-01T22:20:57.932Z,927.22
2019-03-01T22:21:10.916Z,927.24
2019-03-01T22:21:29.934Z,927.2
2019-03-01T22:21:42.937Z,927.23
2019-03-01T22:21:59.780Z,927.18
2019-03-01T22:22:14.480Z,927.24
2019-03-01T22:22:27.495Z,927.17
2019-03-01T22:22:42.770Z,927.19
2019-03-01T22:22:55.790Z,927.17
2019-03-01T22:23:16.596Z,927.21
2019-03-01T22:23:29.683Z,927.2
2019-03-01T22:23:42.635Z,927.17
2019-03-01T22:23:58.746Z,927.21
2019-03-01T22:24:11.301Z,927.14
2019-03-01T22:24:26.471Z,927.24
2019-03-01T22:24:41.273Z,927.2
2019-03-01T22:24:54.328Z,927.23
2019-03-01T22:25:09.446Z,927.21
2019-03-01T22:25:22.481Z,927.21
2019-03-01T22:25:39.222Z,927.22
2019-03-01T22:25:52.201Z,927.21
2019-03-01T22:26:05.796Z,927.21
2019-03-01T22:26:22.950Z,927.22
2019-03-01T22:26:35.956Z,927.2
2019-03-01T22:26:51.455Z,927.21
2019-03-01T22:27:04.484Z,927.21
2019-03-01T22:27:17.489Z,927.23
2019-03-01T22:27:32.550Z,927.24
2019-03-01T22:27:45.510Z,927.16
2019-03-01T22:28:02.887Z,927.21
2019-03-01T22:28:15.845Z,927.2
2019-03-01T22:28:28.903Z,927.19
2019-03-01T22:28:45.650Z,927.21
2019-03-01T22:28:58.682Z,927.18
2019-03-01T22:29:13.977Z,927.19
2019-03-01T22:29:26.996Z,927.17
2019-03-01T22:29:39.543Z,927.16
2019-03-01T22:29:56.882Z,927.15
2019-03-01T22:30:09.880Z,927.15
2019-03-01T22:30:24.859Z,927.12
2019-03-01T22:30:37.844Z,927.14
2019-03-01T22:30:50.822Z,927.12
2019-03-01T22:31:07.405Z,927.09
2019-03-01T22:31:20.391Z,927.07
2019-03-01T22:31:37.341Z,927.09
2019-03-01T22:31:50.326Z,927.09
2019-03-01T22:32:03.329Z,927.1
2019-03-01T22:32:18.334Z,927.14
2019-03-01T22:32:31.371Z,927.13
2019-03-01T22:32:49.217Z,927.09
2019-03-01T22:33:01.794Z,927.08
2019-03-01T22:33:17.349Z,927.08
2019-03-01T22:33:31.972Z,927.09
2019-03-01T22:33:44.952Z,927.08
2019-03-01T22:34:00.724Z,927.08
2019-03-01T22:34:13.939Z,927.08
2019-03-01T22:34:31.010Z,927.1
2019-03-01T22:34:44.304Z,927.08
2019-03-01T22:34:57.355Z,927.11
2019-03-01T22:35:16.506Z,927.14
2019-03-01T22:35:29.438Z,927.12
2019-03-01T22:35:45.612Z,927.12
2019-03-01T22:35:58.642Z,927.13
2019-03-01T22:36:11.651Z,927.15
2019-03-01T22:36:27.940Z,927.12
2019-03-01T22:36:40.959Z,927.19
2019-03-01T22:36:57.743Z,927.16
2019-03-01T22:37:10.840Z,927.18
2019-03-01T22:37:28.366Z,927.19
2019-03-01T22:37:41.559Z,927.16
2019-03-01T22:37:54.511Z,927.18
2019-03-01T22:38:14.217Z,927.15
2019-03-01T22:38:27.258Z,927.18
2019-03-01T22:38:42.628Z,927.2
2019-03-01T22:38:55.634Z,927.18
2019-03-01T22:39:08.551Z,927.17
2019-03-01T22:39:26.397Z,927.2
2019-03-01T22:39:39.376Z,927.17
2019-03-01T22:39:58.243Z,927.17
2019-03-01T22:40:11.236Z,927.2
2019-03-01T22:40:29.367Z,927.18
2019-03-01T22:40:42.571Z,927.2
2019-03-01T22:40:55.548Z,927.21
2019-03-01T22:41:11.784Z,927.22
2019-03-01T22:41:24.784Z,927.23
2019-03-01T22:41:40.494Z,927.2
2019-03-01T22:41:53.571Z,927.24
2019-03-01T22:42:06.553Z,927.23
2019-03-01T22:42:22.255Z,927.26
2019-03-01T22:42:34.848Z,927.29
2019-03-01T22:42:51.147Z,927.27
2019-03-01T22:43:04.175Z,927.3
2019-03-01T22:43:18.666Z,927.28
2019-03-01T22:43:35.820Z,927.27
2019-03-01T22:43:50.345Z,927.29
2019-03-01T22:44:08.223Z,927.3
2019-03-01T22:44:21.303Z,927.32
2019-03-01T22:44:38.350Z,927.28
2019-03-01T22:44:51.356Z,927.33
2019-03-01T22:45:04.372Z,927.33
2019-03-01T22:45:21.508Z,927.34
2019-03-01T22:45:34.436Z,927.35
2019-03-01T22:45:50.729Z,927.38
2019-03-01T22:46:03.725Z,927.37
2019-03-01T22:46:16.678Z,927.36
2019-03-01T22:46:32.133Z,927.34
2019-03-01T22:46:45.117Z,927.38
2019-03-01T22:47:01.601Z,927.38
2019-03-01T22:47:14.720Z,927.4
2019-03-01T22:47:27.769Z,927.43
2019-03-01T22:47:45.737Z,927.42
2019-03-01T22:47:58.752Z,927.41
2019-03-01T22:48:13.452Z,927.44
2019-03-01T22:48:26.431Z,927.41
2019-03-01T22:48:53.016Z,927.42
2019-03-01T22:49:07.597Z,927.45
2019-03-01T22:49:20.421Z,927.43
2019-03-01T22:49:36.701Z,927.4
2019-03-01T22:49:49.689Z,927.45
2019-03-01T22:50:06.932Z,927.4
2019-03-01T22:50:20.334Z,927.43
2019-03-01T22:50:35.132Z,927.43
2019-03-01T22:50:50.520Z,927.44
2019-03-01T22:51:03.579Z,927.43
2019-03-01T22:51:19.073Z,927.45
2019-03-01T22:51:32.098Z,927.46
2019-03-01T22:51:45.116Z,927.45
2019-03-01T22:52:02.569Z,927.43
2019-03-01T22:52:15.606Z,927.43
2019-03-01T22:52:31.483Z,927.41
2019-03-01T22:52:44.541Z,927.41
2019-03-01T22:52:57.576Z,927.46
2019-03-01T22:53:14.293Z,927.42
2019-03-01T22:53:27.256Z,927.44
2019-03-01T22:53:44.119Z,927.46
2019-03-01T22:53:58.588Z,927.43
2019-03-01T22:54:11.088Z,927.46
2019-03-01T22:54:25.877Z,927.39
2019-03-01T22:54:38.862Z,927.44
2019-03-01T22:54:51.854Z,927.43
2019-03-01T22:55:08.748Z,927.44
2019-03-01T22:55:21.259Z,927.43
2019-03-01T22:55:36.709Z,927.45
2019-03-01T22:55:49.863Z,927.43
2019-03-01T22:56:02.914Z,927.42
2019-03-01T22:56:19.165Z,927.43
2019-03-01T22:56:32.662Z,927.45
2019-03-01T22:56:52.181Z,927.42
2019-03-01T22:57:05.218Z,927.4
2019-03-01T22:57:25.922Z,927.44
2019-03-01T22:57:39.123Z,927.43
2019-03-01T22:57:52.350Z,927.42
2019-03-01T22:58:09.316Z,927.46
2019-03-01T22:58:22.333Z,927.43
2019-03-01T22:58:40.122Z,927.43
2019-03-01T22:58:53.169Z,927.45
2019-03-01T22:59:08.532Z,927.45
2019-03-01T22:59:22.608Z,927.42
2019-03-01T22:59:36.848Z,927.47
2019-03-01T22:59:53.897Z,927.42
2019-03-01T23:00:06.843Z,927.47
2019-03-01T23:00:22.604Z,927.44
2019-03-01T23:00:35.723Z,927.44
2019-03-01T23:00:48.756Z,927.42
2019-03-01T23:01:05.745Z,927.43
2019-03-01T23:01:20.759Z,927.46
2019-03-01T23:01:39.479Z,927.45
2019-03-01T23:01:52.489Z,927.42
2019-03-01T23:02:11.708Z,927.41
2019-03-01T23:02:24.654Z,927.42
2019-03-01T23:02:40.287Z,927.43
2019-03-01T23:02:54.374Z,927.43
2019-03-01T23:03:07.388Z,927.4
2019-03-01T23:03:25.062Z,927.41
2019-03-01T23:03:38.161Z,927.41
2019-03-01T23:03:54.797Z,927.45
2019-03-01T23:04:08.114Z,927.44
2019-03-01T23:04:21.140Z,927.43
2019-03-01T23:04:37.310Z,927.4
2019-03-01T23:04:50.260Z,927.41
2019-03-01T23:05:05.869Z,927.42
2019-03-01T23:05:18.876Z,927.45
2019-03-01T23:05:31.892Z,927.46
2019-03-01T23:05:46.279Z,927.46
2019-03-01T23:05:59.340Z,927.46
2019-03-01T23:06:15.585Z,927.45
2019-03-01T23:06:28.652Z,927.51
2019-03-01T23:06:41.617Z,927.47
2019-03-01T23:06:58.743Z,927.48
2019-03-01T23:07:11.738Z,927.47
2019-03-01T23:07:30.116Z,927.51
2019-03-01T23:07:43.098Z,927.49
2019-03-01T23:08:00.148Z,927.53
2019-03-01T23:08:13.425Z,927.5
2019-03-01T23:08:26.513Z,927.55
2019-03-01T23:08:45.179Z,927.56
2019-03-01T23:08:58.226Z,927.53
2019-03-01T23:09:14.480Z,927.56
2019-03-01T23:09:27.688Z,927.54
2019-03-01T23:09:46.421Z,927.54
2019-03-01T23:09:59.716Z,927.57
2019-03-01T23:10:12.694Z,927.55
2019-03-01T23:10:29.410Z,927.6
2019-03-01T23:10:42.404Z,927.55
2019-03-01T23:10:58.864Z,927.59
2019-03-01T23:11:11.384Z,927.6
2019-03-01T23:11:24.410Z,927.61
2019-03-01T23:11:40.433Z,927.62
2019-03-01T23:11:53.409Z,927.62
2019-03-01T23:12:09.230Z,927.62
2019-03-01T23:12:22.240Z,927.63
2019-03-01T23:12:35.255Z,927.65
2019-03-01T23:12:50.901Z,927.64
2019-03-01T23:13:03.910Z,927.64
2019-03-01T23:13:21.835Z,927.65
2019-03-01T23:13:34.975Z,927.66
2019-03-01T23:13:48.050Z,927.68
2019-03-01T23:14:05.391Z,927.66
2019-03-01T23:14:18.453Z,927.67
2019-03-01T23:14:35.889Z,927.67
2019-03-01T23:14:48.848Z,927.67
2019-03-01T23:15:06.705Z,927.65
2019-03-01T23:15:19.936Z,927.69
2019-03-01T23:15:32.923Z,927.71
2019-03-01T23:15:47.523Z,927.71
2019-03-01T23:16:00.512Z,927.65
2019-03-01T23:16:15.794Z,927.71
2019-03-01T23:16:29.319Z,927.69
2019-03-01T23:16:42.310Z,927.69
2019-03-01T23:16:58.669Z,927.67
2019-03-01T23:17:11.675Z,927.71
2019-03-01T23:17:27.498Z,927.74
2019-03-01T23:17:41.306Z,927.71
2019-03-01T23:17:54.313Z,927.7
2019-03-01T23:18:09.939Z,927.7
2019-03-01T23:18:23.049Z,927.72
2019-03-01T23:18:41.388Z,927.73
2019-03-01T23:19:03.371Z,927.7
2019-03-01T23:19:20.372Z,927.72
2019-03-01T23:19:33.456Z,927.72
2019-03-01T23:19:51.592Z,927.7
2019-03-01T23:20:04.808Z,927.69
2019-03-01T23:20:17.868Z,927.69
2019-03-01T23:20:35.943Z,927.74
2019-03-01T23:20:48.908Z,927.72
2019-03-01T23:21:06.004Z,927.72
2019-03-01T23:21:18.972Z,927.72
2019-03-01T23:21:35.877Z,927.72
2019-03-01T23:21:49.094Z,927.76
2019-03-01T23:22:02.106Z,927.72
2019-03-01T23:22:18.069Z,927.77
2019-03-01T23:22:31.078Z,927.74
2019-03-01T23:22:47.901Z,927.76
2019-03-01T23:23:00.865Z,927.74
2019-03-01T23:23:13.936Z,927.71
2019-03-01T23:23:31.933Z,927.76
2019-03-01T23:23:44.914Z,927.76
2019-03-01T23:24:00.944Z,927.72
2019-03-01T23:24:14.003Z,927.72
2019-03-01T23:24:27.083Z,927.73
2019-03-01T23:24:44.173Z,927.75
2019-03-01T23:24:59.455Z,927.73
2019-03-01T23:25:15.681Z,927.73
2019-03-01T23:25:28.721Z,927.79
2019-03-01T23:25:46.294Z,927.75
2019-03-01T23:26:00.471Z,927.76
2019-03-01T23:26:13.497Z,927.74
2019-03-01T23:26:31.295Z,927.75
2019-03-01T23:26:44.249Z,927.75
2019-03-01T23:26:58.778Z,927.82
2019-03-01T23:27:11.818Z,927.83
2019-03-01T23:27:24.852Z,927.84
2019-03-01T23:27:39.663Z,927.83
2019-03-01T23:27:52.675Z,927.86
2019-03-01T23:28:09.376Z,927.85
2019-03-01T23:28:22.394Z,927.86
2019-03-01T23:28:35.362Z,927.87
2019-03-01T23:28:53.475Z,927.88
2019-03-01T23:29:06.492Z,927.88
2019-03-01T23:29:24.089Z,927.91
2019-03-01T23:29:37.131Z,927.92
2019-03-01T23:29:54.234Z,927.89
2019-03-01T23:30:07.427Z,927.89
2019-03-01T23:30:21.489Z,927.93
2019-03-01T23:30:36.896Z,927.9
2019-03-01T23:30:49.879Z,927.91
2019-03-01T23:31:05.670Z,927.93
2019-03-01T23:31:18.663Z,927.89
2019-03-01T23:31:31.648Z,927.94
2019-03-01T23:31:48.700Z,927.91
2019-03-01T23:32:01.646Z,927.9
2019-03-01T23:32:16.836Z,927.89
2019-03-01T23:32:29.862Z,927.88
2019-03-01T23:32:42.811Z,927.88
2019-03-01T23:33:00.374Z,927.91
2019-03-01T23:33:13.450Z,927.88
2019-03-01T23:33:31.541Z,927.84
2019-03-01T23:33:44.761Z,927.88
2019-03-01T23:33:57.312Z,927.89
2019-03-01T23:34:14.768Z,927.84
2019-03-01T23:34:28.181Z,927.84
2019-03-01T23:34:43.840Z,927.82
2019-03-01T23:34:56.940Z,927.82
2019-03-01T23:35:09.964Z,927.78
2019-03-01T23:35:25.316Z,927.8
2019-03-01T23:35:38.374Z,927.82
2019-03-01T23:35:54.091Z,927.81
2019-03-01T23:36:07.099Z,927.8
2019-03-01T23:36:20.128Z,927.79
2019-03-01T23:36:36.697Z,927.77
2019-03-01T23:36:49.731Z,927.78
2019-03-01T23:37:07.266Z,927.79
2019-03-01T23:37:20.269Z,927.78
2019-03-01T23:37:35.534Z,927.78
2019-03-01T23:37:49.843Z,927.78
2019-03-01T23:38:02.933Z,927.78
2019-03-01T23:38:19.028Z,927.74
2019-03-01T23:38:32.054Z,927.78
2019-03-01T23:38:51.294Z,927.77
2019-03-01T23:39:04.395Z,927.79
2019-03-01T23:39:17.348Z,927.78
2019-03-01T23:39:34.606Z,927.82
2019-03-01T23:39:47.621Z,927.82
2019-03-01T23:40:05.262Z,927.8
2019-03-01T23:40:18.236Z,927.83
2019-03-01T23:40:35.789Z,927.82
2019-03-01T23:40:48.998Z,927.83
2019-03-01T23:41:01.975Z,927.85
2019-03-01T23:41:18.580Z,927.86
2019-03-01T23:41:31.594Z,927.87
2019-03-01T23:41:50.083Z,927.85
2019-03-01T23:42:03.142Z,927.87
2019-03-01T23:42:22.047Z,927.84
2019-03-01T23:42:35.073Z,927.84
2019-03-01T23:42:48.128Z,927.87
2019-03-01T23:43:05.987Z,927.84
2019-03-01T23:43:19.034Z,927.87
2019-03-01T23:43:35.736Z,927.86
2019-03-01T23:43:48.783Z,927.87
2019-03-01T23:44:06.410Z,927.91
2019-03-01T23:44:19.647Z,927.85
2019-03-01T23:44:32.662Z,927.88
2019-03-01T23:44:51.321Z,927.88
2019-03-01T23:45:03.889Z,927.88
2019-03-01T23:45:18.743Z,927.87
2019-03-01T23:45:31.803Z,927.87
2019-03-01T23:45:49.827Z,927.9
2019-03-01T23:46:04.031Z,927.86
2019-03-01T23:46:17.106Z,927.9
2019-03-01T23:46:35.290Z,927.89
2019-03-01T23:46:48.334Z,927.93
2019-03-01T23:47:06.463Z,927.89
2019-03-01T23:47:19.467Z,927.9
2019-03-01T23:47:39.512Z,927.94
2019-03-01T23:47:52.576Z,927.92
2019-03-01T23:48:05.639Z,927.93
2019-03-01T23:48:21.552Z,927.91
2019-03-01T23:48:34.630Z,927.94
2019-03-01T23:48:52.600Z,927.92
2019-03-01T23:49:13.327Z,927.96
2019-03-01T23:49:30.851Z,927.94
2019-03-01T23:49:43.892Z,927.96
2019-03-01T23:50:02.995Z,927.98
2019-03-01T23:50:16.009Z,927.99
2019-03-01T23:50:31.470Z,927.96
2019-03-01T23:50:45.685Z,927.99
2019-03-01T23:50:58.721Z,928
2019-03-01T23:51:14.713Z,927.99
2019-03-01T23:51:27.693Z,927.99
2019-03-01T23:51:45.322Z,928.02
2019-03-01T23:51:59.134Z,928.01
2019-03-01T23:52:12.117Z,928
2019-03-01T23:52:27.761Z,928
2019-03-01T23:52:40.744Z,928.01
2019-03-01T23:52:58.653Z,928
2019-03-01T23:53:12.008Z,928.01
2019-03-01T23:53:24.488Z,928.02
2019-03-01T23:53:38.869Z,928.01
2019-03-01T23:53:51.918Z,928.02
2019-03-01T23:54:08.970Z,928.03
2019-03-01T23:54:22.211Z,928.03
2019-03-01T23:54:35.243Z,928.03
2019-03-01T23:54:54.955Z,928.06
2019-03-01T23:55:07.942Z,928.06
2019-03-01T23:55:25.693Z,928.07
2019-03-01T23:55:38.693Z,928.09
2019-03-01T23:55:58.331Z,928.06
2019-03-01T23:56:11.354Z,928.08
2019-03-01T23:56:26.741Z,928.08
2019-03-01T23:56:40.615Z,928.05
2019-03-01T23:56:53.158Z,928.09
2019-03-01T23:57:09.831Z,928.09
2019-03-01T23:57:22.816Z,928.09
2019-03-01T23:57:41.024Z,928.08
2019-03-01T23:57:54.270Z,928.09
2019-03-01T23:58:17.736Z,928.15
2019-03-01T23:58:30.775Z,928.11
2019-03-01T23:58:43.751Z,928.12
2019-03-01T23:58:58.974Z,928.12
2019-03-01T23:59:11.937Z,928.12
2019-03-01T23:59:28.644Z,928.13
2019-03-01T23:59:41.610Z,928.16
2019-03-01T23:59:54.713Z,928.14
